Time;durP1;ratioP1;P1;durP2;ratioP2;P2;SDS_P1;SDS_P2;PMS_P1;PMS_P2;Temp;Humidity;BMP_temperature;BMP_pressure;BME280_temperature;BME280_humidity;BME280_pressure;Samples;Min_cycle;Max_cycle;Signal;HPM_P1;HPM_P2
2022/09/21 00:00:24;;;;;;;8.80;6.85;;;5.60;99.90;;;;;;5054173;28;20024;-53
2022/09/21 00:02:50;;;;;;;7.07;5.13;;;5.70;99.90;;;;;;5053877;28;20035;-52
2022/09/21 00:05:16;;;;;;;7.00;5.30;;;5.70;99.90;;;;;;5054078;28;20100;-51
2022/09/21 00:07:42;;;;;;;5.07;4.57;;;5.80;99.90;;;;;;5053750;28;20044;-51
2022/09/21 00:10:08;;;;;;;13.48;5.63;;;5.90;99.90;;;;;;5053985;28;20017;-51
2022/09/21 00:12:34;;;;;;;8.23;6.28;;;6.00;99.90;;;;;;5053940;28;20021;-51
2022/09/21 00:15:00;;;;;;;6.90;5.00;;;6.10;99.90;;;;;;5053873;28;20028;-52
2022/09/21 00:17:25;;;;;;;7.28;5.60;;;6.10;99.90;;;;;;5053822;28;20120;-51
2022/09/21 00:19:51;;;;;;;9.98;5.30;;;6.10;99.90;;;;;;5053727;28;20052;-50
2022/09/21 00:22:17;;;;;;;11.05;5.85;;;6.20;99.90;;;;;;5053795;28;20984;-51
2022/09/21 00:24:43;;;;;;;7.38;6.13;;;6.20;99.90;;;;;;5053501;28;20025;-53
2022/09/21 00:27:08;;;;;;;11.55;5.50;;;6.30;99.90;;;;;;5052596;28;20086;-51
2022/09/21 00:29:34;;;;;;;7.68;6.60;;;6.30;99.90;;;;;;5053353;28;20116;-51
2022/09/21 00:32:00;;;;;;;6.45;5.47;;;6.30;99.90;;;;;;5053500;28;20100;-52
2022/09/21 00:34:26;;;;;;;7.53;5.53;;;6.30;99.90;;;;;;5053489;28;20029;-50
2022/09/21 00:36:52;;;;;;;9.18;5.65;;;6.30;99.90;;;;;;5053291;28;20029;-51
2022/09/21 00:39:17;;;;;;;10.70;5.40;;;6.40;99.90;;;;;;5053275;28;20023;-51
2022/09/21 00:41:43;;;;;;;7.70;5.32;;;6.40;99.90;;;;;;5052989;28;20029;-51
2022/09/21 00:44:20;;;;;;;6.55;5.45;;;6.40;99.90;;;;;;5053091;28;20488;-52
2022/09/21 00:46:48;;;;;;;5.78;5.13;;;6.40;99.90;;;;;;5053022;28;20036;-51
2022/09/21 00:49:14;;;;;;;9.68;5.20;;;6.40;99.90;;;;;;5053227;28;20025;-51
2022/09/21 00:51:46;;;;;;;6.40;5.10;;;6.40;99.90;;;;;;5052995;28;20476;-50
2022/09/21 00:54:19;;;;;;;9.05;4.90;;;6.50;99.90;;;;;;5053144;28;20025;-50
2022/09/21 00:56:45;;;;;;;8.20;5.15;;;6.50;99.90;;;;;;5053023;28;20183;-52
2022/09/21 00:59:13;;;;;;;6.53;4.88;;;6.50;99.90;;;;;;5052929;28;20096;-50
2022/09/21 01:01:46;;;;;;;6.20;5.60;;;6.50;99.90;;;;;;5052592;28;20043;-49
2022/09/21 01:04:13;;;;;;;6.25;5.05;;;6.50;99.90;;;;;;5052672;28;20104;-55
2022/09/21 01:06:40;;;;;;;8.13;5.75;;;6.50;99.90;;;;;;5052416;28;20029;-51
2022/09/21 01:09:06;;;;;;;15.95;6.97;;;6.50;99.90;;;;;;5052726;28;20032;-53
2022/09/21 01:11:44;;;;;;;6.22;5.45;;;6.50;99.90;;;;;;5052755;28;20032;-52
2022/09/21 01:14:25;;;;;;;5.43;4.93;;;6.50;99.90;;;;;;5052719;28;20464;-51
2022/09/21 01:17:11;;;;;;;9.43;5.93;;;6.60;99.90;;;;;;5052585;28;20029;-50
2022/09/21 01:20:16;;;;;;;6.55;5.90;;;6.50;99.90;;;;;;5052643;28;20381;-52
2022/09/21 01:22:50;;;;;;;9.93;5.82;;;6.60;99.90;;;;;;5052435;28;20565;-51
2022/09/21 01:25:34;;;;;;;7.70;5.90;;;6.60;99.90;;;;;;5052603;28;20056;-50
2022/09/21 01:28:37;;;;;;;7.38;6.55;;;6.60;99.90;;;;;;5052672;28;20023;-51
2022/09/21 01:31:06;;;;;;;7.65;6.22;;;6.60;99.90;;;;;;5052382;28;20021;-49
2022/09/21 01:33:37;;;;;;;7.45;6.13;;;6.60;99.90;;;;;;5052500;28;20029;-51
2022/09/21 01:36:13;;;;;;;10.48;6.72;;;6.60;99.90;;;;;;5052448;28;20365;-51
2022/09/21 01:38:44;;;;;;;8.77;5.88;;;6.60;99.90;;;;;;5050635;28;20044;-51
2022/09/21 01:41:12;;;;;;;13.38;6.65;;;6.60;99.90;;;;;;5034546;28;20028;-50
2022/09/21 01:43:42;;;;;;;8.15;6.43;;;6.60;99.90;;;;;;5052206;28;20403;-51
2022/09/21 01:46:14;;;;;;;9.73;6.60;;;6.60;99.90;;;;;;5052226;28;20096;-51
2022/09/21 01:48:45;;;;;;;6.55;5.95;;;6.60;99.90;;;;;;5052139;28;20036;-51
2022/09/21 01:51:14;;;;;;;7.68;6.10;;;6.70;99.90;;;;;;5052028;28;20040;-50
2022/09/21 01:54:04;;;;;;;12.45;7.75;;;6.60;99.90;;;;;;5051859;28;20082;-52
2022/09/21 01:56:45;;;;;;;6.68;5.78;;;6.70;99.90;;;;;;5052054;28;20021;-50
2022/09/21 01:59:39;;;;;;;7.97;6.00;;;6.70;99.90;;;;;;5051971;28;20062;-51
2022/09/21 02:02:13;;;;;;;6.50;5.82;;;6.60;99.90;;;;;;5051949;28;20025;-53
2022/09/21 02:05:21;;;;;;;9.52;6.53;;;6.70;99.90;;;;;;5051748;28;20029;-49
2022/09/21 02:07:50;;;;;;;6.13;5.45;;;6.70;99.90;;;;;;5051504;28;20056;-50
2022/09/21 02:10:31;;;;;;;6.05;5.15;;;6.60;99.90;;;;;;5051762;28;20029;-51
2022/09/21 02:13:24;;;;;;;8.68;5.05;;;6.60;99.90;;;;;;5051794;28;20040;-51
2022/09/21 02:16:06;;;;;;;5.97;5.35;;;6.60;99.90;;;;;;5051607;28;20032;-52
2022/09/21 02:18:47;;;;;;;5.97;5.38;;;6.60;99.90;;;;;;5051694;28;20029;-56
2022/09/21 02:21:23;;;;;;;5.75;5.13;;;6.60;99.90;;;;;;5051663;28;20025;-51
2022/09/21 02:24:00;;;;;;;5.63;5.03;;;6.60;99.90;;;;;;5051532;28;20032;-52
2022/09/21 02:26:33;;;;;;;5.45;4.95;;;6.50;99.90;;;;;;5051682;28;20124;-51
2022/09/21 02:29:17;;;;;;;36.35;21.80;;;6.50;99.90;;;;;;5050135;28;20104;-50
2022/09/21 02:32:00;;;;;;;38.13;24.02;;;6.50;99.90;;;;;;5051336;28;20035;-51
2022/09/21 02:34:29;;;;;;;39.67;23.52;;;6.50;99.90;;;;;;5051477;28;20017;-50
2022/09/21 02:37:06;;;;;;;13.18;10.80;;;6.50;99.90;;;;;;5049989;28;20059;-52
2022/09/21 02:39:41;;;;;;;10.10;7.13;;;6.50;99.90;;;;;;5051356;28;20604;-52
2022/09/21 02:42:15;;;;;;;15.70;8.75;;;6.50;99.90;;;;;;5051368;28;20113;-51
2022/09/21 02:44:54;;;;;;;16.05;8.60;;;6.50;99.90;;;;;;5050019;28;20375;-50
2022/09/21 02:47:30;;;;;;;9.60;8.35;;;6.60;99.90;;;;;;5051289;28;20032;-51
2022/09/21 02:50:13;;;;;;;10.52;6.38;;;6.60;99.90;;;;;;5052801;28;20112;-51
2022/09/21 02:52:41;;;;;;;7.40;5.35;;;6.60;99.90;;;;;;5055367;28;20376;-50
2022/09/21 02:55:08;;;;;;;7.35;6.25;;;6.60;99.90;;;;;;5055444;28;20484;-52
2022/09/21 02:57:35;;;;;;;8.13;5.88;;;6.60;99.90;;;;;;5055226;28;20021;-52
2022/09/21 03:00:01;;;;;;;7.80;5.63;;;6.70;99.90;;;;;;5055225;28;20056;-52
2022/09/21 03:02:39;;;;;;;7.40;5.60;;;6.70;99.90;;;;;;5055316;28;20025;-52
2022/09/21 03:05:06;;;;;;;6.65;5.40;;;6.70;99.90;;;;;;5055241;28;20036;-50
2022/09/21 03:07:31;;;;;;;8.90;5.50;;;6.70;99.90;;;;;;5054948;28;20672;-50
2022/09/21 03:09:57;;;;;;;6.50;4.70;;;6.70;99.90;;;;;;5055079;28;20036;-51
2022/09/21 03:12:23;;;;;;;5.65;5.18;;;6.70;99.90;;;;;;5055108;28;20447;-50
2022/09/21 03:14:50;;;;;;;12.82;6.55;;;6.70;99.90;;;;;;5055051;28;20025;-50
2022/09/21 03:17:16;;;;;;;12.57;5.68;;;6.70;99.90;;;;;;5055159;28;20100;-51
2022/09/21 03:19:42;;;;;;;8.93;5.45;;;6.70;99.90;;;;;;5054778;28;20105;-51
2022/09/21 03:22:08;;;;;;;8.18;5.20;;;6.70;99.90;;;;;;5055050;28;20025;-53
2022/09/21 03:24:45;;;;;;;6.47;5.88;;;6.70;99.90;;;;;;5054827;28;20024;-52
2022/09/21 03:27:16;;;;;;;6.75;4.95;;;6.70;99.90;;;;;;5054761;28;20044;-51
2022/09/21 03:29:42;;;;;;;6.90;4.40;;;6.80;99.90;;;;;;5054707;28;20013;-50
2022/09/21 03:32:08;;;;;;;4.88;4.47;;;6.80;99.90;;;;;;5054662;28;20017;-50
2022/09/21 03:34:34;;;;;;;131.05;35.42;;;6.90;99.90;;;;;;5053407;28;20444;-52
2022/09/21 03:37:05;;;;;;;128.18;34.72;;;6.80;99.90;;;;;;5054757;28;20044;-50
2022/09/21 03:39:31;;;;;;;163.43;41.65;;;6.80;99.90;;;;;;5054596;28;20013;-51
2022/09/21 03:41:57;;;;;;;76.28;24.13;;;6.90;99.90;;;;;;5054460;28;20021;-51
2022/09/21 03:44:24;;;;;;;433.58;112.47;;;6.80;99.90;;;;;;5054635;28;20368;-51
2022/09/21 03:46:50;;;;;;;32.22;13.55;;;6.80;99.90;;;;;;5054354;28;20041;-50
2022/09/21 03:49:16;;;;;;;16.65;8.65;;;6.80;99.90;;;;;;5054400;28;20021;-51
2022/09/21 03:51:42;;;;;;;12.15;6.25;;;6.80;99.90;;;;;;5054232;28;20053;-54
2022/09/21 03:54:09;;;;;;;11.48;5.95;;;6.90;99.90;;;;;;5053004;28;20048;-51
2022/09/21 03:56:34;;;;;;;12.38;6.30;;;6.90;99.90;;;;;;5054374;28;20033;-51
2022/09/21 03:59:00;;;;;;;15.43;7.47;;;6.90;99.90;;;;;;5054315;28;20025;-52
2022/09/21 04:01:26;;;;;;;13.52;6.75;;;6.90;99.90;;;;;;5054059;28;20121;-51
2022/09/21 04:03:52;;;;;;;7.95;5.70;;;6.90;99.90;;;;;;5054122;28;20642;-52
2022/09/21 04:06:18;;;;;;;12.20;7.05;;;6.90;99.90;;;;;;5054067;28;20057;-51
2022/09/21 04:08:43;;;;;;;7.53;5.60;;;6.90;99.90;;;;;;5052487;28;20045;-52
2022/09/21 04:11:11;;;;;;;7.18;5.95;;;6.90;99.90;;;;;;5053892;28;20033;-53
2022/09/21 04:13:37;;;;;;;8.98;6.10;;;6.90;99.90;;;;;;5053904;28;20021;-52
2022/09/21 04:16:03;;;;;;;9.77;6.25;;;6.90;99.90;;;;;;5052515;28;20094;-49
2022/09/21 04:18:29;;;;;;;6.65;5.90;;;6.90;99.90;;;;;;5053827;28;20648;-52
2022/09/21 04:20:54;;;;;;;9.48;6.50;;;6.90;99.90;;;;;;5053667;28;20112;-50
2022/09/21 04:23:21;;;;;;;7.53;5.80;;;6.90;99.90;;;;;;5053826;28;20698;-51
2022/09/21 04:25:50;;;;;;;7.05;5.80;;;6.90;99.90;;;;;;5053528;28;20013;-51
2022/09/21 04:28:16;;;;;;;6.38;5.72;;;6.90;99.90;;;;;;5053731;28;20017;-50
2022/09/21 04:30:47;;;;;;;7.60;6.75;;;6.90;99.90;;;;;;5053307;28;20032;-50
2022/09/21 04:33:13;;;;;;;11.13;7.35;;;6.90;99.90;;;;;;5053618;28;20070;-50
2022/09/21 04:35:39;;;;;;;8.13;6.00;;;6.80;99.90;;;;;;5053503;28;20017;-52
2022/09/21 04:38:04;;;;;;;11.30;6.75;;;6.90;99.90;;;;;;5053619;28;20036;-51
2022/09/21 04:40:30;;;;;;;10.93;5.63;;;6.80;99.90;;;;;;5053505;28;20021;-53
2022/09/21 04:42:56;;;;;;;10.35;5.75;;;6.80;99.90;;;;;;5053296;28;20037;-50
2022/09/21 04:45:23;;;;;;;8.07;5.30;;;6.80;99.90;;;;;;5053380;28;20502;-49
2022/09/21 04:47:48;;;;;;;7.35;5.32;;;6.80;99.90;;;;;;5053209;28;20162;-51
2022/09/21 04:50:14;;;;;;;26.27;12.77;;;6.80;99.90;;;;;;5053228;28;20112;-50
2022/09/21 04:52:40;;;;;;;92.10;40.00;;;6.80;99.90;;;;;;5053080;28;20036;-50
2022/09/21 04:55:06;;;;;;;55.75;25.90;;;6.80;99.90;;;;;;5053191;28;20025;-52
2022/09/21 04:57:32;;;;;;;18.65;8.32;;;6.70;99.90;;;;;;5053231;28;20552;-51
2022/09/21 04:59:58;;;;;;;10.45;5.88;;;6.80;99.90;;;;;;5052880;28;20017;-54
2022/09/21 05:02:23;;;;;;;8.27;6.50;;;6.80;99.90;;;;;;5053030;28;20480;-52
2022/09/21 05:04:49;;;;;;;7.57;5.70;;;6.70;99.90;;;;;;5052464;28;20060;-52
2022/09/21 05:07:15;;;;;;;7.32;5.93;;;6.80;99.90;;;;;;5051824;28;20135;-53
2022/09/21 05:12:25;;;;;;;6.20;5.45;;;6.60;99.90;;;;;;5052388;28;20032;-51
2022/09/21 05:14:51;;;;;;;8.40;6.55;;;6.60;99.90;;;;;;5052265;28;20033;-50
2022/09/21 05:17:17;;;;;;;7.78;6.32;;;6.50;99.90;;;;;;5052576;28;20058;-50
2022/09/21 05:19:42;;;;;;;6.50;5.88;;;6.50;99.90;;;;;;5052410;28;20342;-52
2022/09/21 05:22:08;;;;;;;17.60;5.78;;;6.40;99.90;;;;;;5052533;28;20480;-52
2022/09/21 05:24:35;;;;;;;5.70;5.10;;;6.30;99.90;;;;;;5052234;28;20610;-53
2022/09/21 05:27:00;;;;;;;7.18;5.68;;;6.30;99.90;;;;;;5052096;28;20048;-51
2022/09/21 05:29:26;;;;;;;8.38;5.60;;;6.30;99.90;;;;;;5051700;28;20048;-51
2022/09/21 05:32:23;;;;;;;5.72;5.22;;;6.30;99.90;;;;;;5052068;28;20518;-52
2022/09/21 05:34:54;;;;;;;8.35;5.78;;;6.30;99.90;;;;;;5052122;28;20052;-50
2022/09/21 05:37:43;;;;;;;13.13;6.07;;;6.30;99.90;;;;;;5052374;28;20595;-51
2022/09/21 05:40:10;;;;;;;10.32;5.72;;;6.40;99.90;;;;;;5052382;28;20644;-51
2022/09/21 05:42:36;;;;;;;5.90;5.38;;;6.60;99.90;;;;;;5052083;28;20033;-51
2022/09/21 05:45:03;;;;;;;6.75;5.65;;;6.70;99.90;;;;;;5052203;28;20032;-50
2022/09/21 05:47:34;;;;;;;5.65;5.07;;;6.80;99.90;;;;;;5052189;28;20357;-52
2022/09/21 05:50:09;;;;;;;6.50;5.03;;;7.00;99.90;;;;;;5051998;28;20032;-52
2022/09/21 05:53:00;;;;;;;9.07;5.07;;;7.20;99.90;;;;;;5051919;28;20025;-55
2022/09/21 05:55:59;;;;;;;16.27;11.05;;;7.30;99.90;;;;;;5051727;28;20117;-51
2022/09/21 05:59:00;;;;;;;4.97;4.50;;;7.40;99.90;;;;;;5051862;28;20387;-52
2022/09/21 06:01:51;;;;;;;6.93;4.72;;;7.60;99.90;;;;;;5051907;28;20032;-51
2022/09/21 06:04:17;;;;;;;7.35;4.95;;;7.80;99.90;;;;;;5051728;28;20025;-52
2022/09/21 06:06:42;;;;;;;5.03;4.55;;;8.00;99.90;;;;;;5051531;28;20040;-51
2022/09/21 06:09:08;;;;;;;7.97;4.45;;;8.10;99.90;;;;;;5051856;28;20377;-51
2022/09/21 06:11:34;;;;;;;8.95;4.07;;;8.20;99.90;;;;;;5050163;28;20036;-52
2022/09/21 06:14:01;;;;;;;9.35;4.90;;;8.40;99.90;;;;;;5050960;28;20122;-52
2022/09/21 06:16:35;;;;;;;19.48;7.97;;;8.50;99.90;;;;;;5050300;28;20469;-52
2022/09/21 06:19:00;;;;;;;8.05;5.18;;;8.60;99.90;;;;;;5050697;28;20020;-52
2022/09/21 06:21:26;;;;;;;11.55;5.65;;;8.60;99.90;;;;;;5049118;28;20506;-51
2022/09/21 06:23:52;;;;;;;11.48;5.97;;;8.70;99.90;;;;;;5049445;28;20039;-52
2022/09/21 06:26:17;;;;;;;7.00;4.57;;;8.70;99.90;;;;;;5050360;28;20028;-51
2022/09/21 06:28:43;;;;;;;12.13;7.05;;;8.70;99.90;;;;;;5049929;28;20028;-52
2022/09/21 06:31:08;;;;;;;44.90;23.20;;;8.80;99.90;;;;;;5048942;28;20029;-51
2022/09/21 06:33:36;;;;;;;21.67;10.48;;;8.80;99.90;;;;;;5050148;28;20024;-51
2022/09/21 06:36:02;;;;;;;6.35;5.65;;;8.70;99.90;;;;;;5050378;28;20013;-51
2022/09/21 06:38:28;;;;;;;5.38;4.22;;;8.70;99.90;;;;;;5050100;28;20021;-52
2022/09/21 06:40:54;;;;;;;7.15;5.15;;;8.70;99.90;;;;;;5049923;28;20366;-49
2022/09/21 06:43:20;;;;;;;17.48;10.90;;;8.70;99.90;;;;;;5050223;28;20036;-51
2022/09/21 06:46:00;;;;;;;10.68;6.03;;;8.70;99.90;;;;;;5049992;28;20029;-51
2022/09/21 06:48:27;;;;;;;7.65;4.78;;;8.80;99.90;;;;;;5050044;28;20020;-51
2022/09/21 06:51:01;;;;;;;7.53;6.57;;;8.80;99.90;;;;;;5059655;28;20114;-51
2022/09/21 06:53:28;;;;;;;7.85;5.75;;;8.90;99.90;;;;;;5091391;28;20348;-52
2022/09/21 06:56:00;;;;;;;6.03;5.45;;;9.00;99.90;;;;;;5076956;28;20110;-52
2022/09/21 06:58:26;;;;;;;6.97;5.22;;;9.20;99.90;;;;;;5069588;28;20108;-52
2022/09/21 07:00:52;;;;;;;6.15;4.10;;;9.40;99.90;;;;;;5071176;28;20132;-52
2022/09/21 07:03:18;;;;;;;9.00;4.20;;;9.50;99.90;;;;;;5071213;28;20023;-51
2022/09/21 07:05:45;;;;;;;5.82;3.88;;;9.70;99.90;;;;;;5071004;28;20034;-51
2022/09/21 07:08:11;;;;;;;6.47;3.72;;;9.90;99.90;;;;;;5059282;28;20048;-51
2022/09/21 07:10:36;;;;;;;4.90;4.22;;;9.90;99.90;;;;;;5049932;28;20086;-53
2022/09/21 07:16:24;;;;;;;8.48;4.68;;;10.00;99.90;;;;;;5070424;28;20035;-50
2022/09/21 07:18:50;;;;;;;6.07;5.47;;;10.10;99.90;;;;;;5067995;28;20025;-51
2022/09/21 07:21:15;;;;;;;6.35;4.93;;;10.20;99.90;;;;;;5070518;28;20432;-53
2022/09/21 07:23:41;;;;;;;5.35;4.85;;;10.30;99.90;;;;;;5069218;28;20070;-51
2022/09/21 07:26:09;;;;;;;7.22;4.75;;;10.30;99.90;;;;;;5061968;28;20023;-51
2022/09/21 07:28:35;;;;;;;4.15;3.75;;;10.40;99.90;;;;;;5050599;28;20350;-52
2022/09/21 07:31:09;;;;;;;4.63;4.13;;;10.40;99.90;;;;;;5066673;28;20099;-52
2022/09/21 07:33:35;;;;;;;6.95;5.38;;;10.70;99.90;;;;;;5070745;28;20031;-51
2022/09/21 07:36:05;;;;;;;8.57;6.95;;;10.50;99.90;;;;;;5072451;28;20029;-51
2022/09/21 07:38:34;;;;;;;6.10;3.30;;;10.40;99.90;;;;;;5074587;28;20066;-50
2022/09/21 07:41:02;;;;;;;6.60;3.42;;;10.60;99.90;;;;;;5074213;28;20074;-51
2022/09/21 07:43:27;;;;;;;3.28;2.97;;;10.80;99.90;;;;;;5063446;28;20036;-51
2022/09/21 07:45:56;;;;;;;11.82;7.05;;;11.00;99.90;;;;;;5072569;28;20476;-51
2022/09/21 07:48:23;;;;;;;5.40;3.08;;;11.10;99.90;;;;;;5074548;28;20041;-51
2022/09/21 07:50:49;;;;;;;3.00;2.67;;;10.70;99.90;;;;;;5067669;28;20033;-52
2022/09/21 07:53:16;;;;;;;5.30;3.25;;;11.00;99.90;;;;;;5056695;28;20031;-51
2022/09/21 07:55:42;;;;;;;3.25;2.90;;;11.20;99.90;;;;;;5049198;28;20059;-51
2022/09/21 08:00:53;;;;;;;4.70;2.53;;;11.20;99.90;;;;;;5042559;28;20136;-54
2022/09/21 08:03:21;;;;;;;3.40;3.03;;;11.10;99.90;;;;;;5042506;28;20136;-53
2022/09/21 08:05:58;;;;;;;4.15;2.90;;;11.10;99.90;;;;;;5042682;28;20031;-52
2022/09/21 08:08:24;;;;;;;4.10;2.60;;;11.10;99.90;;;;;;5043396;28;20045;-52
2022/09/21 08:10:51;;;;;;;3.03;2.72;;;11.20;99.90;;;;;;5041012;28;20049;-56
2022/09/21 08:13:17;;;;;;;4.65;2.90;;;11.20;99.90;;;;;;5042652;28;20056;-55
2022/09/21 08:15:43;;;;;;;3.55;2.70;;;11.40;99.90;;;;;;5041608;28;20354;-54
2022/09/21 08:18:12;;;;;;;4.88;2.40;;;11.50;99.90;;;;;;5042516;28;20110;-55
2022/09/21 08:20:37;;;;;;;4.80;3.03;;;11.70;99.90;;;;;;5042944;28;20032;-53
2022/09/21 08:23:03;;;;;;;3.40;2.45;;;11.80;99.90;;;;;;5042978;28;20750;-55
2022/09/21 08:25:29;;;;;;;4.82;2.70;;;11.60;99.90;;;;;;5042994;28;20036;-51
2022/09/21 08:27:59;;;;;;;3.58;2.90;;;11.80;99.90;;;;;;5042652;28;20025;-52
2022/09/21 08:30:26;;;;;;;5.70;2.80;;;11.60;99.90;;;;;;5041243;28;20076;-52
2022/09/21 08:32:53;;;;;;;3.78;2.65;;;11.80;99.90;;;;;;5042808;28;20097;-52
2022/09/21 08:35:19;;;;;;;4.75;2.95;;;11.90;99.90;;;;;;5041352;28;20392;-52
2022/09/21 08:37:45;;;;;;;6.50;2.80;;;11.90;99.90;;;;;;5042083;28;20040;-55
2022/09/21 08:40:15;;;;;;;3.92;3.33;;;12.10;99.90;;;;;;5042855;28;20021;-52
2022/09/21 08:43:11;;;;;;;5.60;2.72;;;12.10;99.90;;;;;;5043106;28;20120;-51
2022/09/21 08:45:45;;;;;;;3.80;2.30;;;12.40;99.90;;;;;;5052830;28;20100;-52
2022/09/21 08:48:20;;;;;;;4.30;2.78;;;12.20;99.90;;;;;;5051898;28;20072;-51
2022/09/21 08:50:54;;;;;;;3.08;2.10;;;12.70;99.90;;;;;;5068299;28;20024;-51
2022/09/21 08:53:44;;;;;;;2.90;2.00;;;13.10;99.90;;;;;;5073186;28;20024;-50
2022/09/21 08:56:11;;;;;;;3.72;2.20;;;13.30;99.90;;;;;;5072764;28;20093;-54
2022/09/21 08:58:41;;;;;;;2.85;1.85;;;13.30;99.90;;;;;;5072861;28;20020;-51
2022/09/21 09:01:12;;;;;;;21.63;10.05;;;13.40;99.90;;;;;;5054152;28;20029;-52
2022/09/21 09:04:15;;;;;;;4.05;2.38;;;13.70;99.90;;;;;;5052853;28;20029;-51
2022/09/21 09:07:34;;;;;;;3.47;1.90;;;13.60;99.70;;;;;;5052433;28;20052;-51
2022/09/21 09:10:32;;;;;;;4.88;1.95;;;13.80;99.90;;;;;;5070411;28;20036;-49
2022/09/21 09:13:34;;;;;;;2.67;2.10;;;13.60;99.90;;;;;;5052699;28;20017;-51
2022/09/21 09:16:12;;;;;;;7.40;3.78;;;13.50;99.90;;;;;;5052727;28;20036;-49
2022/09/21 09:18:46;;;;;;;3.67;2.30;;;13.30;99.90;;;;;;5053633;28;20104;-50
2022/09/21 09:21:19;;;;;;;3.10;1.98;;;12.90;99.90;;;;;;5052544;28;20036;-50
2022/09/21 09:23:53;;;;;;;4.50;1.80;;;12.70;99.90;;;;;;5052612;28;20028;-50
2022/09/21 09:26:29;;;;;;;3.55;1.90;;;12.70;99.90;;;;;;5052598;28;20009;-50
2022/09/21 09:29:00;;;;;;;2.63;1.60;;;12.50;99.90;;;;;;5069902;28;20111;-51
2022/09/21 09:31:34;;;;;;;3.58;2.03;;;12.20;99.90;;;;;;5070856;28;20037;-51
2022/09/21 09:34:10;;;;;;;2.70;1.95;;;12.10;99.90;;;;;;5069553;28;20032;-50
2022/09/21 09:36:39;;;;;;;3.00;2.08;;;12.00;99.90;;;;;;5052027;28;20128;-51
2022/09/21 09:39:12;;;;;;;5.88;1.80;;;11.90;99.90;;;;;;5052135;28;20067;-49
2022/09/21 09:42:01;;;;;;;2.73;2.20;;;11.90;99.90;;;;;;5052000;28;20420;-50
2022/09/21 09:45:17;;;;;;;6.47;2.55;;;11.80;99.90;;;;;;5057188;28;20268;-51
2022/09/21 09:47:59;;;;;;;3.63;2.38;;;11.70;99.90;;;;;;5069196;28;20045;-49
2022/09/21 09:50:40;;;;;;;4.25;2.40;;;11.70;99.90;;;;;;5071784;28;20668;-51
2022/09/21 09:53:11;;;;;;;3.97;3.03;;;11.70;99.90;;;;;;5071852;28;20025;-52
2022/09/21 09:55:43;;;;;;;3.30;3.00;;;11.60;99.90;;;;;;5056953;28;20028;-55
2022/09/21 09:58:24;;;;;;;12.50;3.90;;;11.60;99.90;;;;;;5051761;28;20021;-51
2022/09/21 10:00:52;;;;;;;6.78;4.00;;;11.60;99.90;;;;;;5051577;28;20043;-54
2022/09/21 10:03:23;;;;;;;7.38;4.10;;;11.50;99.90;;;;;;5051568;28;20124;-50
2022/09/21 10:05:50;;;;;;;4.35;3.95;;;11.50;99.90;;;;;;5067378;28;20089;-49
2022/09/21 10:08:43;;;;;;;5.10;4.30;;;11.50;99.90;;;;;;5071224;28;20059;-50
2022/09/21 10:11:11;;;;;;;5.07;4.32;;;11.50;99.90;;;;;;5052413;28;20476;-48
2022/09/21 10:13:43;;;;;;;9.98;3.90;;;11.60;99.90;;;;;;5051330;28;20013;-51
2022/09/21 10:16:21;;;;;;;6.75;3.58;;;11.90;99.90;;;;;;5051292;28;20025;-51
2022/09/21 10:19:00;;;;;;;5.45;3.05;;;12.10;99.90;;;;;;5051030;28;20051;-52
2022/09/21 10:21:36;;;;;;;3.20;2.72;;;12.30;99.90;;;;;;5066486;28;20025;-51
2022/09/21 10:24:14;;;;;;;4.38;3.10;;;12.50;99.90;;;;;;5051300;28;20568;-51
2022/09/21 10:26:46;;;;;;;2.78;2.50;;;12.70;99.90;;;;;;5050908;28;20091;-51
2022/09/21 10:29:21;;;;;;;2.65;2.10;;;12.60;99.90;;;;;;5052781;28;20481;-54
2022/09/21 10:32:12;;;;;;;4.78;4.38;;;12.90;99.90;;;;;;5071056;28;20093;-52
2022/09/21 10:34:39;;;;;;;3.20;2.80;;;13.10;99.90;;;;;;5071176;28;20529;-50
2022/09/21 10:37:27;;;;;;;2.63;2.42;;;13.10;99.90;;;;;;5070978;28;20391;-53
2022/09/21 10:39:54;;;;;;;7.68;4.82;;;13.50;99.90;;;;;;5063363;28;20021;-53
2022/09/21 10:42:20;;;;;;;4.93;3.38;;;13.60;99.90;;;;;;5051032;28;20991;-51
2022/09/21 10:44:51;;;;;;;3.63;2.03;;;13.80;99.90;;;;;;5050761;28;20036;-50
2022/09/21 10:47:32;;;;;;;17.98;2.72;;;14.10;99.90;;;;;;5050761;28;20380;-51
2022/09/21 10:50:00;;;;;;;3.17;2.30;;;14.10;99.90;;;;;;5064335;28;20056;-51
2022/09/21 10:52:37;;;;;;;1.77;1.67;;;14.40;99.90;;;;;;5071068;28;20031;-50
2022/09/21 10:55:04;;;;;;;2.78;1.73;;;14.80;99.90;;;;;;5070957;28;20363;-52
2022/09/21 10:57:32;;;;;;;2.80;1.60;;;15.00;98.90;;;;;;5070913;28;20372;-51
2022/09/21 11:00:34;;;;;;;3.38;1.73;;;14.70;97.70;;;;;;5056705;28;20025;-51
2022/09/21 11:03:05;;;;;;;1.77;1.42;;;14.60;98.90;;;;;;5050800;28;20017;-50
2022/09/21 11:05:33;;;;;;;5.95;2.45;;;14.80;99.10;;;;;;5050782;28;20158;-51
2022/09/21 11:08:09;;;;;;;5.05;1.80;;;15.60;98.30;;;;;;5050522;28;20053;-49
2022/09/21 11:11:09;;;;;;;2.25;1.45;;;15.70;97.70;;;;;;5070047;28;20043;-49
2022/09/21 11:13:47;;;;;;;3.88;1.60;;;16.10;96.20;;;;;;5074472;28;20017;-64
2022/09/21 11:16:21;;;;;;;2.55;1.90;;;15.80;94.40;;;;;;5074728;28;20020;-52
2022/09/21 11:19:08;;;;;;;2.53;1.58;;;15.40;95.90;;;;;;5070920;28;20028;-50
2022/09/21 11:21:43;;;;;;;3.10;1.45;;;15.00;95.40;;;;;;5068056;28;20032;-52
2022/09/21 11:24:37;;;;;;;4.78;1.40;;;15.00;95.70;;;;;;5072874;28;20024;-51
2022/09/21 11:27:13;;;;;;;1.25;1.00;;;15.60;93.80;;;;;;5072593;28;20099;-51
2022/09/21 11:30:12;;;;;;;1.75;1.58;;;15.70;93.00;;;;;;5070630;28;20032;-50
2022/09/21 11:32:56;;;;;;;12.65;8.82;;;15.70;93.70;;;;;;5070968;28;20032;-51
2022/09/21 11:35:32;;;;;;;5.25;3.50;;;15.50;92.60;;;;;;5072454;28;20075;-50
2022/09/21 11:38:04;;;;;;;3.70;1.83;;;15.40;94.20;;;;;;5068041;28;20120;-51
2022/09/21 11:41:01;;;;;;;2.38;1.10;;;15.50;93.00;;;;;;5051593;28;20051;-51
2022/09/21 11:44:07;;;;;;;1.60;1.20;;;15.70;91.90;;;;;;5051094;28;20033;-49
2022/09/21 11:46:37;;;;;;;2.65;1.33;;;16.00;91.00;;;;;;5069767;28;20503;-53
2022/09/21 11:49:33;;;;;;;2.53;1.48;;;15.60;90.80;;;;;;5071769;28;20044;-49
2022/09/21 11:52:05;;;;;;;1.88;1.13;;;15.20;92.10;;;;;;5063480;28;20111;-50
2022/09/21 11:54:39;;;;;;;4.28;1.20;;;15.20;92.10;;;;;;5061241;28;20033;-50
2022/09/21 11:57:20;;;;;;;2.72;1.33;;;15.50;90.90;;;;;;5066624;28;20162;-50
2022/09/21 12:00:01;;;;;;;4.68;1.50;;;15.60;91.00;;;;;;5056995;28;20027;-50
2022/09/21 12:02:35;;;;;;;0.90;0.90;;;15.60;90.70;;;;;;5061901;28;20028;-51
2022/09/21 12:05:35;;;;;;;1.48;1.10;;;16.10;89.30;;;;;;5062611;28;20036;-50
2022/09/21 12:08:33;;;;;;;2.75;1.30;;;16.20;90.40;;;;;;5058599;28;20140;-51
2022/09/21 12:11:12;;;;;;;2.35;1.48;;;16.20;87.70;;;;;;5052611;28;20481;-50
2022/09/21 12:13:58;;;;;;;2.50;1.48;;;15.90;88.10;;;;;;5063528;28;20424;-52
2022/09/21 12:16:59;;;;;;;2.17;1.40;;;16.10;93.10;;;;;;5065793;28;20017;-50
2022/09/21 12:19:42;;;;;;;1.60;1.40;;;16.80;90.20;;;;;;5051701;28;20132;-50
2022/09/21 12:22:16;;;;;;;2.17;0.98;;;18.40;87.10;;;;;;5050704;28;20065;-50
2022/09/21 12:24:41;;;;;;;;;;;20.00;82.20;;;;;;5062127;28;20568;-51
2022/09/21 12:27:19;;;;;;;2.97;1.17;;;21.40;74.60;;;;;;5057694;28;19909;-50
2022/09/21 12:29:49;;;;;;;1.60;1.08;;;23.30;63.90;;;;;;5062568;28;20100;-51
2022/09/21 12:32:33;;;;;;;3.08;1.10;;;22.80;64.10;;;;;;5061173;28;20029;-51
2022/09/21 12:35:03;;;;;;;2.35;1.40;;;21.80;64.60;;;;;;5058988;28;20029;-50
2022/09/21 12:37:31;;;;;;;1.38;1.02;;;20.50;66.70;;;;;;5042445;28;20036;-55
2022/09/21 12:40:44;;;;;;;3.75;1.40;;;19.60;67.60;;;;;;5049813;28;20392;-54
2022/09/21 12:43:27;;;;;;;1.73;1.13;;;19.30;70.40;;;;;;5062380;28;20024;-51
2022/09/21 12:46:05;;;;;;;1.65;1.05;;;18.30;69.70;;;;;;5046778;28;20068;-51
2022/09/21 12:48:38;;;;;;;6.47;1.67;;;17.40;72.90;;;;;;5059684;28;20025;-51
2022/09/21 12:51:10;;;;;;;4.25;1.63;;;17.00;75.40;;;;;;5069530;28;20028;-50
2022/09/21 12:53:39;;;;;;;5.57;2.40;;;16.90;76.70;;;;;;5069239;28;20121;-51
2022/09/21 12:56:19;;;;;;;4.85;2.00;;;16.70;79.30;;;;;;5069524;28;20532;-49
2022/09/21 12:58:59;;;;;;;2.75;1.58;;;16.50;82.40;;;;;;5069229;28;20021;-51
2022/09/21 13:01:31;;;;;;;10.38;6.03;;;16.40;80.30;;;;;;5052205;28;20021;-50
2022/09/21 13:04:34;;;;;;;4.10;2.50;;;16.30;80.30;;;;;;5049108;28;20032;-53
2022/09/21 13:07:33;;;;;;;3.65;2.42;;;16.30;81.00;;;;;;5048659;28;20041;-52
2022/09/21 13:10:06;;;;;;;4.35;2.60;;;16.70;78.30;;;;;;5048971;28;20725;-53
2022/09/21 13:12:39;;;;;;;2.70;2.28;;;16.60;77.60;;;;;;5048776;28;20094;-51
2022/09/21 13:15:16;;;;;;;2.88;1.88;;;17.20;79.80;;;;;;5048094;28;20079;-52
2022/09/21 13:17:42;;;;;;;2.97;1.65;;;19.10;77.00;;;;;;5048297;28;20048;-50
2022/09/21 13:20:19;;;;;;;2.05;1.65;;;22.00;66.90;;;;;;5048647;28;20376;-54
2022/09/21 13:22:47;;;;;;;2.40;1.10;;;24.20;64.60;;;;;;5047700;28;20032;-51
2022/09/21 13:25:24;;;;;;;1.13;0.65;;;24.40;63.90;;;;;;5048311;28;20049;-51
2022/09/21 13:28:00;;;;;;;0.63;0.63;;;27.10;53.10;;;;;;5048488;28;20025;-52
2022/09/21 13:30:33;;;;;;;1.27;0.90;;;27.40;48.10;;;;;;5048792;28;20029;-53